Time;durP1;ratioP1;P1;durP2;ratioP2;P2;SDS_P1;SDS_P2;PMS_P1;PMS_P2;Temp;Humidity;BMP_temperature;BMP_pressure;BME280_temperature;BME280_humidity;BME280_pressure;Samples;Min_cycle;Max_cycle;Signal;HPM_P1;HPM_P2
2022/04/20 00:00:15;;;;;;;;;27.25;21.75;;;;;13.09;59.49;100983.44;4971545;28;45811;-77
2022/04/20 00:02:41;;;;;;;;;26.25;24.00;;;;;13.06;59.56;100979.19;4971331;28;45434;-77
2022/04/20 00:05:06;;;;;;;;;29.75;23.75;;;;;13.06;59.87;100980.97;4971513;28;45468;-77
2022/04/20 00:07:33;;;;;;;;;25.25;23.25;;;;;13.05;60.09;100981.91;4972954;28;45891;-77
2022/04/20 00:09:59;;;;;;;;;25.75;19.00;;;;;13.04;59.73;100973.09;4971473;28;45271;-77
2022/04/20 00:12:24;;;;;;;;;25.25;21.25;;;;;13.03;59.95;100975.81;4968756;28;45511;-77
2022/04/20 00:14:50;;;;;;;;;26.50;23.25;;;;;13.01;60.00;100980.34;4961146;28;45322;-77
2022/04/20 00:17:15;;;;;;;;;35.00;27.33;;;;;12.98;60.02;100985.75;4970617;28;55403;-77
2022/04/20 00:19:40;;;;;;;;;32.25;23.25;;;;;12.93;59.96;100979.84;4971072;28;45463;-77
2022/04/20 00:22:06;;;;;;;;;36.25;24.50;;;;;12.87;60.16;100980.16;4973158;28;45465;-77
2022/04/20 00:24:31;;;;;;;;;32.00;23.00;;;;;12.84;60.33;100981.13;4970953;28;45471;-77
2022/04/20 00:26:56;;;;;;;;;31.75;26.75;;;;;12.82;60.57;100984.78;4971123;28;45431;-77
2022/04/20 00:29:22;;;;;;;;;31.75;26.25;;;;;12.79;60.07;100986.66;4960643;28;47294;-77
2022/04/20 00:31:47;;;;;;;;;30.50;25.50;;;;;12.75;60.24;100984.25;4971135;28;45390;-77
2022/04/20 00:34:12;;;;;;;;;32.50;23.25;;;;;12.73;60.69;100979.00;4972733;28;45441;-77
2022/04/20 00:36:38;;;;;;;;;33.50;29.50;;;;;12.70;60.65;100962.50;4968015;28;45554;-77
2022/04/20 00:39:03;;;;;;;;;39.00;28.00;;;;;12.69;60.86;100971.34;4970521;28;45989;-77
2022/04/20 00:41:29;;;;;;;;;33.50;27.50;;;;;12.65;60.64;100973.28;4970933;28;45404;-77
2022/04/20 00:43:55;;;;;;;;;37.25;27.00;;;;;12.64;61.26;100979.47;4970954;28;45295;-77
2022/04/20 00:46:21;;;;;;;;;36.75;30.50;;;;;12.62;61.06;100976.03;4968465;28;45594;-77
2022/04/20 00:48:50;;;;;;;;;38.75;31.25;;;;;12.58;61.27;100966.59;4968420;28;45421;-77
2022/04/20 00:51:15;;;;;;;;;35.50;29.25;;;;;12.57;61.30;100978.03;4967265;28;45470;-77
2022/04/20 00:53:41;;;;;;;;;37.50;30.00;;;;;12.55;61.76;100969.34;4967969;28;45489;-77
2022/04/20 00:56:06;;;;;;;;;40.25;29.25;;;;;12.53;61.89;100965.97;4962598;28;45509;-77
2022/04/20 00:58:33;;;;;;;;;36.25;31.50;;;;;12.52;61.81;100974.75;4968694;28;46136;-77
2022/04/20 01:00:59;;;;;;;;;44.00;31.50;;;;;12.50;61.84;100963.44;4967633;28;45974;-76
2022/04/20 01:03:24;;;;;;;;;41.50;31.50;;;;;12.49;61.94;100964.38;4969330;28;45434;-77
2022/04/20 01:05:50;;;;;;;;;36.25;33.25;;;;;12.46;61.97;100960.09;4969571;28;45861;-77
2022/04/20 01:08:15;;;;;;;;;35.00;30.75;;;;;12.44;62.37;100963.75;4983506;28;46820;-77
2022/04/20 01:10:40;;;;;;;;;42.00;36.00;;;;;12.43;62.15;100962.03;4969921;28;45509;-77
2022/04/20 01:13:06;;;;;;;;;39.75;33.75;;;;;12.41;62.16;100962.09;4970226;28;45326;-76
2022/04/20 01:15:32;;;;;;;;;43.50;34.25;;;;;12.41;62.01;100970.00;4962051;28;45565;-77
2022/04/20 01:17:57;;;;;;;;;45.50;35.25;;;;;12.39;62.20;100965.75;4962123;28;45937;-77
2022/04/20 01:20:22;;;;;;;;;47.75;33.00;;;;;12.36;62.44;100966.72;4969286;28;45374;-77
2022/04/20 01:22:48;;;;;;;;;41.25;36.00;;;;;12.36;62.63;100961.44;4970511;28;45654;-77
2022/04/20 01:25:13;;;;;;;;;48.75;37.50;;;;;12.32;62.59;100953.75;4971100;28;45458;-77
2022/04/20 01:27:40;;;;;;;;;42.75;35.00;;;;;12.34;62.64;100955.41;4972803;28;46416;-77
2022/04/20 01:30:06;;;;;;;;;45.25;36.00;;;;;12.33;62.39;100955.50;4965243;28;45806;-77
2022/04/20 01:32:32;;;;;;;;;45.75;37.00;;;;;12.30;62.76;100945.06;4962694;28;45434;-77
2022/04/20 01:34:58;;;;;;;;;44.00;35.25;;;;;12.31;62.66;100952.91;4969035;28;45362;-77
2022/04/20 01:37:23;;;;;;;;;41.25;34.25;;;;;12.28;62.92;100950.44;4972039;28;47027;-76
2022/04/20 01:39:48;;;;;;;;;47.50;37.75;;;;;12.26;62.52;100947.00;4958566;28;45421;-76
2022/04/20 01:42:13;;;;;;;;;50.00;37.75;;;;;12.26;62.97;100953.13;4965826;28;45294;-76
2022/04/20 01:44:39;;;;;;;;;45.33;36.00;;;;;12.26;63.25;100955.75;4958937;28;45288;-76
2022/04/20 01:47:04;;;;;;;;;42.00;35.75;;;;;12.21;63.32;100951.63;4954787;28;45835;-76
2022/04/20 01:49:30;;;;;;;;;52.25;38.25;;;;;12.20;62.92;100950.78;4971593;28;45285;-76
2022/04/20 01:51:55;;;;;;;;;48.00;36.50;;;;;12.18;63.25;100957.06;4969166;28;45440;-76
2022/04/20 01:54:20;;;;;;;;;50.50;37.50;;;;;12.16;63.58;100957.13;4968519;28;45365;-76
2022/04/20 01:56:51;;;;;;;;;48.75;37.50;;;;;12.14;63.41;100953.69;4968319;28;45271;-76
2022/04/20 01:59:16;;;;;;;;;48.00;39.00;;;;;12.13;63.45;100951.13;4967377;28;45528;-76
2022/04/20 02:04:27;;;;;;;;;55.75;39.50;;;;;12.09;63.75;100958.31;4971375;28;45331;-76
2022/04/20 02:06:52;;;;;;;;;56.75;42.75;;;;;12.05;63.54;100951.47;4968781;28;46193;-76
2022/04/20 02:09:18;;;;;;;;;54.75;39.50;;;;;12.02;63.73;100956.91;4971478;28;45513;-76
2022/04/20 02:11:43;;;;;;;;;49.50;38.50;;;;;12.01;63.58;100958.69;4971536;28;45334;-76
2022/04/20 02:14:09;;;;;;;;;50.00;39.00;;;;;11.96;63.93;100947.50;4971525;28;45411;-76
2022/04/20 02:16:34;;;;;;;;;51.75;40.25;;;;;11.94;64.01;100954.59;4962893;28;45701;-76
2022/04/20 02:18:59;;;;;;;;;56.00;41.75;;;;;11.95;64.18;100955.44;4970009;28;45370;-76
2022/04/20 02:21:25;;;;;;;;;50.00;39.50;;;;;11.92;64.00;100942.44;4971128;28;45372;-76
2022/04/20 02:23:50;;;;;;;;;54.33;40.33;;;;;11.90;63.56;100944.25;4971356;28;49716;-76
2022/04/20 02:26:15;;;;;;;;;60.67;41.00;;;;;11.88;63.74;100939.06;4970232;28;46156;-76
2022/04/20 02:28:41;;;;;;;;;60.00;42.25;;;;;11.84;64.31;100937.50;4971493;28;45863;-76
2022/04/20 02:31:06;;;;;;;;;52.00;41.00;;;;;11.83;64.42;100927.03;4965153;28;45470;-76
2022/04/20 02:33:31;;;;;;;;;52.67;40.00;;;;;11.80;64.26;100922.75;4968360;28;45669;-76
2022/04/20 02:35:57;;;;;;;;;50.33;37.33;;;;;11.80;64.41;100922.75;4970286;28;45389;-76
2022/04/20 02:38:23;;;;;;;;;49.50;40.25;;;;;11.80;64.57;100920.13;4971096;28;45807;-76
2022/04/20 02:40:51;;;;;;;;;51.25;39.25;;;;;11.78;64.68;100914.03;4972370;28;48146;-76
2022/04/20 02:43:16;;;;;;;;;53.75;40.50;;;;;11.78;64.80;100919.31;4973570;28;45370;-76
2022/04/20 02:45:42;;;;;;;;;56.25;41.75;;;;;11.76;64.73;100914.13;4970819;28;45365;-76
2022/04/20 02:48:09;;;;;;;;;49.75;38.25;;;;;11.75;64.70;100907.16;4970940;28;45456;-76
2022/04/20 02:50:34;;;;;;;;;52.25;42.25;;;;;11.75;65.08;100901.03;4985286;28;45529;-76
2022/04/20 02:53:00;;;;;;;;;54.75;41.00;;;;;11.74;65.00;100900.19;4957536;28;45506;-76
2022/04/20 02:55:25;;;;;;;;;51.25;40.00;;;;;11.76;64.87;100900.97;4970489;28;45325;-76
2022/04/20 02:57:50;;;;;;;;;51.75;41.00;;;;;11.76;64.75;100900.09;4970431;28;45465;-76
2022/04/20 03:00:16;;;;;;;;;51.00;40.00;;;;;11.78;64.65;100908.78;4965253;28;45478;-76
2022/04/20 03:02:42;;;;;;;;;59.25;37.50;;;;;11.76;65.16;100906.22;4970937;28;45395;-76
2022/04/20 03:05:07;;;;;;;;;55.75;40.75;;;;;11.75;64.94;100909.78;4970544;28;45908;-76
2022/04/20 03:07:32;;;;;;;;;60.00;40.75;;;;;11.74;65.44;100902.81;4970398;28;45602;-76
2022/04/20 03:09:58;;;;;;;;;57.00;39.25;;;;;11.72;65.29;100891.47;4967696;28;45350;-76
2022/04/20 03:12:23;;;;;;;;;57.00;43.25;;;;;11.72;65.42;100890.63;4970721;28;45491;-76
2022/04/20 03:14:51;;;;;;;;;50.75;39.00;;;;;11.72;65.48;100891.47;4970773;28;46078;-76
2022/04/20 03:17:17;;;;;;;;;55.25;42.75;;;;;11.73;65.09;100887.06;4970548;28;45532;-76
2022/04/20 03:19:42;;;;;;;;;59.75;44.00;;;;;11.71;65.25;100883.66;4972963;28;45514;-77
2022/04/20 03:22:07;;;;;;;;;58.50;44.50;;;;;11.71;65.26;100889.78;4958279;28;45410;-77
2022/04/20 03:24:33;;;;;;;;;50.00;38.00;;;;;11.70;65.49;100895.97;4968044;28;49718;-77
2022/04/20 03:26:58;;;;;;;;;56.75;40.75;;;;;11.69;65.74;100896.91;4969883;28;45615;-77
2022/04/20 03:29:24;;;;;;;;;56.25;41.75;;;;;11.67;65.53;100897.88;4967918;28;45666;-77
2022/04/20 03:31:49;;;;;;;;;63.00;45.00;;;;;11.66;65.67;100907.56;4964983;28;45315;-77
2022/04/20 03:34:15;;;;;;;;;59.75;44.50;;;;;11.67;65.64;100909.25;4971962;28;45783;-76
2022/04/20 03:36:40;;;;;;;;;55.25;40.75;;;;;11.65;65.68;100911.13;4970120;28;45463;-77
2022/04/20 03:39:06;;;;;;;;;59.00;43.00;;;;;11.66;66.07;100911.97;4961655;28;45554;-77
2022/04/20 03:41:31;;;;;;;;;59.25;42.50;;;;;11.66;65.80;100915.47;4960238;28;45626;-77
2022/04/20 03:43:57;;;;;;;;;57.25;43.25;;;;;11.63;65.81;100912.94;4969885;28;45336;-77
2022/04/20 03:46:23;;;;;;;;;58.00;43.25;;;;;11.65;65.80;100919.00;4973648;28;45314;-77
2022/04/20 03:48:49;;;;;;;;;58.25;47.75;;;;;11.65;66.18;100923.44;4970279;28;45296;-77
2022/04/20 03:51:15;;;;;;;;;65.00;46.50;;;;;11.64;65.98;100925.22;4968297;28;45434;-77
2022/04/20 03:53:40;;;;;;;;;57.25;43.75;;;;;11.64;65.74;100926.97;4969924;28;46789;-77
2022/04/20 03:56:05;;;;;;;;;61.75;46.00;;;;;11.63;65.99;100936.63;4964034;28;45394;-77
2022/04/20 03:58:30;;;;;;;;;59.00;43.00;;;;;11.62;65.54;100940.19;4972423;28;61223;-77
2022/04/20 04:00:56;;;;;;;;;56.00;45.00;;;;;11.61;66.00;100949.03;4961143;28;45402;-76
2022/04/20 04:03:21;;;;;;;;;61.25;47.75;;;;;11.61;65.88;100948.16;4969833;28;46270;-77
2022/04/20 04:05:47;;;;;;;;;60.25;46.25;;;;;11.60;65.97;100949.94;4969084;28;45426;-77
2022/04/20 04:08:12;;;;;;;;;61.50;46.25;;;;;11.59;66.14;100940.34;4969978;28;46975;-76
2022/04/20 04:10:37;;;;;;;;;58.50;46.75;;;;;11.59;66.37;100937.72;4972803;28;45307;-76
2022/04/20 04:13:03;;;;;;;;;57.00;45.25;;;;;11.58;66.33;100933.34;4961810;28;52489;-77
2022/04/20 04:15:28;;;;;;;;;59.00;45.00;;;;;11.56;65.85;100927.31;4966476;28;45363;-77
2022/04/20 04:17:58;;;;;;;;;56.50;44.00;;;;;11.54;66.31;100913.38;4969074;28;45229;-77
2022/04/20 04:20:24;;;;;;;;;60.00;43.50;;;;;11.53;66.41;100916.06;4968391;28;45551;-77
2022/04/20 04:22:50;;;;;;;;;60.25;45.00;;;;;11.48;66.39;100917.13;4969456;28;45887;-77
2022/04/20 04:25:16;;;;;;;;;59.50;45.25;;;;;11.45;66.33;100914.63;4972041;28;45402;-77
2022/04/20 04:27:41;;;;;;;;;68.00;47.50;;;;;11.43;65.98;100912.97;4974034;28;45385;-76
2022/04/20 04:30:07;;;;;;;;;62.75;47.00;;;;;11.41;66.23;100920.09;4979584;28;45577;-76
2022/04/20 04:32:33;;;;;;;;;57.25;44.75;;;;;11.37;66.09;100919.34;4965621;28;46920;-76
2022/04/20 04:34:59;;;;;;;;;63.75;46.50;;;;;11.34;66.53;100924.75;4957866;28;45470;-77
2022/04/20 04:37:25;;;;;;;;;59.75;46.75;;;;;11.34;66.71;100931.81;4961984;28;45299;-77
2022/04/20 04:39:50;;;;;;;;;65.67;47.67;;;;;11.33;66.28;100930.06;4969658;28;51877;-77
2022/04/20 04:42:15;;;;;;;;;68.33;49.67;;;;;11.30;66.97;100925.81;4967008;28;46334;-77
2022/04/20 04:44:40;;;;;;;;;59.33;45.33;;;;;11.29;66.41;100929.38;4969201;28;50697;-77
2022/04/20 04:49:50;;;;;;;;;62.75;48.75;;;;;11.29;66.94;100941.66;4970850;28;46598;-77
2022/04/20 04:52:15;;;;;;;;;63.50;46.00;;;;;11.28;66.99;100932.06;4968202;28;45503;-77
2022/04/20 04:54:41;;;;;;;;;66.00;47.00;;;;;11.29;66.87;100936.41;4968855;28;45299;-77
2022/04/20 04:57:08;;;;;;;;;63.25;46.75;;;;;11.28;67.23;100934.72;4969370;28;45350;-77
2022/04/20 04:59:37;;;;;;;;;61.00;46.75;;;;;11.29;66.84;100941.66;4970850;28;45409;-77
2022/04/20 05:02:03;;;;;;;;;62.50;47.00;;;;;11.28;66.93;100935.56;4966126;28;45423;-77
2022/04/20 05:04:29;;;;;;;;;63.50;46.75;;;;;11.31;67.44;100934.56;4968512;28;45395;-76
2022/04/20 05:06:56;;;;;;;;;65.75;49.75;;;;;11.34;67.08;100935.28;4968679;28;45448;-77
2022/04/20 05:09:21;;;;;;;;;64.50;47.25;;;;;11.37;67.34;100942.19;4968474;28;45695;-77
2022/04/20 05:11:48;;;;;;;;;63.00;47.67;;;;;11.40;67.01;100939.44;4969133;28;47669;-77
2022/04/20 05:14:14;;;;;;;;;64.75;49.50;;;;;11.45;66.80;100935.69;4969816;28;45816;-77
2022/04/20 05:16:40;;;;;;;;;63.25;47.50;;;;;11.47;67.05;100930.34;4969925;28;45484;-76
2022/04/20 05:19:05;;;;;;;;;60.75;47.50;;;;;11.50;66.83;100925.81;4970455;28;45403;-76
2022/04/20 05:21:30;;;;;;;;;64.67;50.00;;;;;11.58;67.02;100932.50;4968954;28;45875;-77
2022/04/20 05:23:58;;;;;;;;;64.00;48.33;;;;;11.62;66.78;100921.78;4967915;28;56969;-77
2022/04/20 05:26:24;;;;;;;;;63.75;48.00;;;;;11.67;66.48;100926.84;4966323;28;45467;-76
2022/04/20 05:28:49;;;;;;;;;61.75;49.00;;;;;11.70;66.52;100938.09;4954200;28;45580;-77
2022/04/20 05:31:15;;;;;;;;;66.00;49.00;;;;;11.73;66.41;100939.72;5016548;28;50247;-77
2022/04/20 05:33:40;;;;;;;;;65.00;49.50;;;;;11.75;66.23;100940.53;4978135;27;45567;-76
2022/04/20 05:36:05;;;;;;;;;67.00;49.33;;;;;11.82;65.94;100949.03;4968295;28;62451;-77
2022/04/20 05:43:59;;;;;;;;;65.00;49.75;;;;;12.04;66.33;100952.41;5035742;28;45462;-77
2022/04/20 05:46:25;;;;;;;;;61.00;48.67;;;;;12.12;66.24;100955.56;4956825;28;45390;-77
2022/04/20 05:48:50;;;;;;;;;62.75;47.00;;;;;12.21;65.87;100949.84;4971734;28;45352;-77
2022/04/20 05:51:15;;;;;;;;;65.00;50.33;;;;;12.30;65.69;100951.19;4971373;28;45517;-77
2022/04/20 05:53:40;;;;;;;;;68.75;49.75;;;;;12.38;65.49;100949.06;4971487;28;45518;-77
2022/04/20 05:56:06;;;;;;;;;61.33;50.00;;;;;12.47;65.37;100945.97;4971741;28;45489;-76
2022/04/20 05:58:31;;;;;;;;;64.00;48.00;;;;;12.55;64.64;100932.44;4973588;28;45435;-77
2022/04/20 06:00:56;;;;;;;;;66.00;50.00;;;;;12.62;64.84;100936.50;4967946;28;45764;-77
2022/04/20 06:03:22;;;;;;;;;67.67;51.33;;;;;12.68;64.72;100935.34;4967729;28;55850;-77
2022/04/20 06:05:47;;;;;;;;;65.00;51.25;;;;;12.72;64.53;100940.38;4971853;28;45263;-77
2022/04/20 06:08:13;;;;;;;;;61.25;47.00;;;;;12.77;64.16;100930.47;4971702;28;45344;-77
2022/04/20 06:10:38;;;;;;;;;63.50;49.25;;;;;12.78;63.88;100929.53;4973575;28;46833;-77
2022/04/20 06:13:04;;;;;;;;;58.00;44.00;;;;;12.82;64.01;100939.94;4972622;28;45400;-77
2022/04/20 06:15:29;;;;;;;;;71.25;46.50;;;;;12.85;63.96;100940.66;4970285;28;45403;-76
2022/04/20 06:17:54;;;;;;;;;65.00;49.00;;;;;12.94;63.54;100947.25;4973866;28;45564;-76
2022/04/20 06:20:21;;;;;;;;;57.67;43.00;;;;;12.98;63.16;100943.53;4971949;28;54477;-77
2022/04/20 06:22:46;;;;;;;;;60.25;45.25;;;;;13.00;62.77;100941.69;4987731;28;45373;-75
2022/04/20 06:25:12;;;;;;;;;60.00;47.00;;;;;13.01;62.73;100944.25;4973514;28;45508;-75
2022/04/20 06:27:37;;;;;;;;;58.33;47.00;;;;;13.02;62.41;100932.75;4972722;28;45341;-78
2022/04/20 06:30:03;;;;;;;;;67.33;50.00;;;;;13.02;62.50;100937.19;4970738;28;56666;-78
2022/04/20 06:32:28;;;;;;;;;58.25;46.25;;;;;13.06;62.73;100942.25;4967494;28;45502;-78
2022/04/20 06:34:57;;;;;;;;;62.75;48.50;;;;;13.13;62.18;100945.41;4956255;28;45269;-77
2022/04/20 06:37:25;;;;;;;;;72.75;52.00;;;;;13.16;62.21;100942.63;4978342;28;45294;-77
2022/04/20 06:39:50;;;;;;;;;69.25;49.25;;;;;13.20;62.10;100940.69;4970943;28;45866;-79
2022/04/20 06:42:18;;;;;;;;;63.00;47.00;;;;;13.25;61.88;100938.69;4965994;28;45359;-76
2022/04/20 06:44:43;;;;;;;;;65.50;50.50;;;;;13.33;61.90;100947.09;4973975;28;45520;-77
2022/04/20 06:47:09;;;;;;;;;64.75;48.00;;;;;13.35;61.68;100947.00;4968590;28;45514;-77
2022/04/20 06:49:34;;;;;;;;;62.75;49.00;;;;;13.40;61.37;100945.81;4977073;28;45569;-77
2022/04/20 07:00:12;;;;;;;;;62.50;46.25;;;;;13.69;60.40;100939.03;4970247;28;45987;-76
2022/04/20 07:02:37;;;;;;;;;69.25;49.00;;;;;13.73;60.16;100943.25;4969555;28;45401;-77
2022/04/20 07:05:03;;;;;;;;;63.75;47.75;;;;;13.79;60.17;100944.69;4970227;28;46382;-77
2022/04/20 07:07:28;;;;;;;;;62.25;47.50;;;;;13.91;60.35;100943.19;4973414;28;45492;-76
2022/04/20 07:09:53;;;;;;;;;59.33;45.67;;;;;14.06;60.11;100948.50;4967312;28;55230;-76
2022/04/20 07:12:19;;;;;;;;;62.33;48.00;;;;;14.20;59.82;100947.75;4969078;28;46652;-76
2022/04/20 07:14:44;;;;;;;;;62.50;46.50;;;;;14.31;59.57;100941.88;4970466;28;45435;-77
2022/04/20 07:17:09;;;;;;;;;59.50;46.50;;;;;14.47;59.32;100949.81;4968303;28;45475;-77
2022/04/20 07:19:35;;;;;;;;;58.33;45.00;;;;;14.65;59.47;100946.16;4968235;28;53793;-78
2022/04/20 07:22:00;;;;;;;;;58.75;44.00;;;;;14.90;58.54;100948.25;4967976;28;45613;-77
2022/04/20 07:24:26;;;;;;;;;59.00;46.50;;;;;15.04;58.13;100948.34;4966686;28;45434;-78
2022/04/20 07:26:51;;;;;;;;;55.25;45.00;;;;;15.15;57.75;100947.69;4968633;28;45485;-78
2022/04/20 07:29:17;;;;;;;;;59.50;46.00;;;;;15.26;57.62;100947.91;4969557;28;45557;-78
2022/04/20 07:31:42;;;;;;;;;58.25;44.00;;;;;15.34;57.19;100943.00;4970993;28;45754;-78
2022/04/20 07:34:08;;;;;;;;;55.00;43.25;;;;;15.46;56.75;100946.75;4960870;28;45334;-79
2022/04/20 07:36:33;;;;;;;;;59.25;45.75;;;;;15.64;56.77;100945.66;4969444;28;45662;-78
2022/04/20 07:38:58;;;;;;;;;53.00;42.00;;;;;15.77;56.66;100950.22;4970246;28;46258;-78
2022/04/20 07:41:24;;;;;;;;;55.00;44.25;;;;;15.82;55.51;100951.63;4963500;28;45366;-78
2022/04/20 07:43:49;;;;;;;;;56.50;42.25;;;;;15.89;55.88;100952.94;4989825;28;45505;-77
2022/04/20 07:46:17;;;;;;;;;55.25;43.00;;;;;15.96;55.41;100949.91;4962350;28;45490;-78
2022/04/20 07:48:43;;;;;;;;;47.75;39.50;;;;;16.06;54.83;100956.34;4976617;28;45801;-82
2022/04/20 07:51:08;;;;;;;;;50.25;39.50;;;;;16.28;55.37;100954.06;4961082;28;45496;-79
2022/04/20 07:53:34;;;;;;;;;48.67;38.33;;;;;16.52;54.57;100949.00;4960117;28;45485;-77
2022/04/20 07:56:00;;;;;;;;;48.50;37.00;;;;;16.78;54.25;100947.34;4970493;28;45518;-78
2022/04/20 07:58:25;;;;;;;;;50.75;40.25;;;;;17.08;53.59;100954.25;4965724;28;46355;-77
2022/04/20 08:00:51;;;;;;;;;47.50;35.00;;;;;17.33;52.30;100948.09;4957558;28;45569;-77
2022/04/20 08:03:18;;;;;;;;;39.75;32.50;;;;;17.55;51.65;100955.50;4966320;28;45397;-77
2022/04/20 08:05:50;;;;;;;;;42.00;33.75;;;;;17.79;51.71;100952.97;4964404;28;45537;-78
2022/04/20 08:08:16;;;;;;;;;35.75;29.25;;;;;18.13;51.29;100946.13;4974551;28;46321;-77
2022/04/20 08:10:42;;;;;;;;;43.50;33.25;;;;;18.31;50.63;100942.13;4977469;28;46059;-78
2022/04/20 08:15:52;;;;;;;;;31.25;25.75;;;;;18.40;49.58;100940.63;4964728;28;45494;-78
2022/04/20 08:18:18;;;;;;;;;35.00;28.25;;;;;18.48;49.24;100944.44;4960110;28;45831;-75
2022/04/20 08:20:43;;;;;;;;;29.25;26.25;;;;;18.58;48.47;100949.06;4960324;28;45403;-77
2022/04/20 08:23:09;;;;;;;;;31.50;28.50;;;;;18.62;47.91;100951.41;4970185;28;45394;-76
2022/04/20 08:25:34;;;;;;;;;31.25;24.75;;;;;18.82;48.68;100946.47;4967838;28;45357;-77
2022/04/20 08:27:59;;;;;;;;;35.00;27.50;;;;;19.13;47.14;100948.53;4970336;28;46128;-78
2022/04/20 08:30:25;;;;;;;;;29.50;22.50;;;;;19.48;46.78;100955.69;4961555;28;45350;-77
2022/04/20 08:32:50;;;;;;;;;33.50;25.50;;;;;19.63;46.34;100954.53;4962844;28;45488;-78
2022/04/20 08:35:16;;;;;;;;;32.00;27.50;;;;;19.83;47.01;100949.44;4959201;28;45442;-78
2022/04/20 08:37:41;;;;;;;;;29.50;25.50;;;;;19.98;46.07;100954.41;4957872;28;46163;-77
2022/04/20 08:40:07;;;;;;;;;28.25;25.75;;;;;20.13;45.68;100960.34;4987956;28;45311;-78
2022/04/20 08:42:34;;;;;;;;;26.75;22.75;;;;;20.42;45.41;100959.88;4970711;28;45447;-78
2022/04/20 08:45:02;;;;;;;;;28.75;27.00;;;;;20.85;44.28;100954.56;4962721;28;45442;-77
2022/04/20 08:47:34;;;;;;;;;32.50;25.00;;;;;21.75;43.97;100948.75;4960196;28;46045;-77
2022/04/20 08:50:01;;;;;;;;;29.00;28.00;;;;;22.93;44.61;100949.88;4956797;28;45736;-78
2022/04/20 08:52:37;;;;;;;;;42.25;34.75;;;;;24.46;43.35;100946.09;4968867;28;45450;-75
2022/04/20 08:55:07;;;;;;;;;33.25;29.00;;;;;26.14;41.85;100945.09;4965364;28;45735;-76
2022/04/20 08:57:34;;;;;;;;;29.25;25.25;;;;;27.19;39.35;100946.38;4964892;28;45485;-73
2022/04/20 09:00:01;;;;;;;;;29.25;23.75;;;;;28.37;37.16;100954.78;4965130;28;45639;-74
2022/04/20 09:02:28;;;;;;;;;23.25;19.75;;;;;29.65;35.83;100949.59;4959786;28;45295;-78
2022/04/20 09:04:53;;;;;;;;;26.75;22.50;;;;;30.97;34.92;100950.47;4969170;28;45481;-76
2022/04/20 09:07:18;;;;;;;;;24.75;22.00;;;;;32.09;33.91;100964.09;4957016;28;46472;-76
2022/04/20 09:09:44;;;;;;;;;27.75;24.25;;;;;33.34;32.36;100964.69;4963000;28;45469;-76
2022/04/20 09:12:14;;;;;;;;;24.00;21.75;;;;;34.49;30.32;100963.19;4978025;28;45342;-76
2022/04/20 09:14:41;;;;;;;;;23.25;19.75;;;;;35.04;30.09;100963.53;4968096;28;45366;-76
2022/04/20 09:17:10;;;;;;;;;24.00;23.25;;;;;35.41;28.73;100964.47;4955684;28;45973;-76
2022/04/20 09:19:36;;;;;;;;;29.75;25.00;;;;;36.36;28.47;100966.84;4956113;28;45574;-76
2022/04/20 09:22:16;;;;;;;;;24.50;20.75;;;;;37.30;26.45;100957.06;4960240;28;45599;-76
2022/04/20 09:24:57;;;;;;;;;25.25;22.00;;;;;37.48;25.70;100964.34;4956883;28;45420;-76
2022/04/20 09:27:22;;;;;;;;;26.00;23.50;;;;;37.36;26.20;100960.78;4960739;28;47129;-75
2022/04/20 09:29:55;;;;;;;;;22.75;19.50;;;;;36.94;25.40;100957.25;4966689;28;45342;-75
2022/04/20 09:32:44;;;;;;;;;23.75;18.50;;;;;36.05;25.21;100956.94;4964288;28;45467;-76
2022/04/20 09:35:12;;;;;;;;;19.00;17.50;;;;;35.48;24.85;100951.59;4972402;28;45584;-75
2022/04/20 09:37:39;;;;;;;;;21.75;20.75;;;;;34.87;25.94;100948.69;4967173;28;47265;-75
2022/04/20 09:40:06;;;;;;;;;19.75;16.25;;;;;34.24;25.74;100947.53;4962552;28;45556;-75
2022/04/20 09:42:34;;;;;;;;;22.50;18.50;;;;;34.07;26.05;100940.91;4986610;28;45439;-77
2022/04/20 09:45:07;;;;;;;;;22.00;16.75;;;;;33.68;25.85;100941.84;4965209;28;45376;-75
2022/04/20 09:50:23;;;;;;;;;19.00;17.25;;;;;33.65;26.10;100939.53;4963889;28;45569;-73
2022/04/20 09:52:54;;;;;;;;;16.75;15.75;;;;;33.53;25.67;100930.31;4962060;28;45479;-76
2022/04/20 09:55:28;;;;;;;;;19.75;17.00;;;;;33.68;26.32;100928.19;4968413;28;45573;-76
2022/04/20 09:58:18;;;;;;;;;17.25;15.50;;;;;33.78;26.79;100919.56;4958666;28;46338;-75
2022/04/20 10:00:53;;;;;;;;;16.75;15.00;;;;;33.92;25.47;100922.03;4970202;28;45384;-76
2022/04/20 10:03:27;;;;;;;;;21.25;20.50;;;;;34.03;25.93;100920.56;4963216;28;45553;-76
2022/04/20 10:05:53;;;;;;;;;16.00;14.75;;;;;34.18;25.80;100912.09;4962250;28;45812;-76
2022/04/20 10:08:23;;;;;;;;;15.25;14.25;;;;;34.50;25.45;100913.00;4966886;28;45669;-77
2022/04/20 10:10:50;;;;;;;;;17.00;14.25;;;;;34.91;26.04;100912.53;4959465;28;45682;-75
2022/04/20 10:13:17;;;;;;;;;17.75;14.00;;;;;34.94;25.33;100908.53;4966018;28;45581;-76
2022/04/20 10:18:29;;;;;;;;;13.75;12.25;;;;;34.09;24.47;100908.81;4973664;28;45932;-75
2022/04/20 10:21:00;;;;;;;;;14.50;14.00;;;;;33.15;25.50;100914.59;4972453;28;45331;-75
2022/04/20 10:23:29;;;;;;;;;14.00;13.00;;;;;32.31;25.69;100907.69;4964260;28;45589;-75
2022/04/20 10:25:55;;;;;;;;;13.50;11.75;;;;;31.77;26.84;100911.22;4969494;28;45515;-76
2022/04/20 10:29:02;;;;;;;;;12.50;12.50;;;;;31.33;26.50;100908.84;4973760;28;46144;-76
2022/04/20 10:31:42;;;;;;;;;12.50;11.25;;;;;30.81;26.51;100904.63;4989822;28;45578;-77
2022/04/20 10:34:13;;;;;;;;;50.50;41.25;;;;;30.31;26.69;100899.03;4967657;28;45388;-76
2022/04/20 10:36:38;;;;;;;;;13.25;13.25;;;;;29.97;27.07;100905.06;4968847;28;45474;-78
2022/04/20 10:39:22;;;;;;;;;12.50;11.25;;;;;29.73;27.60;100905.34;4989413;28;45513;-77
2022/04/20 10:42:16;;;;;;;;;12.25;11.50;;;;;29.32;27.32;100901.16;4959555;28;45642;-76
2022/04/20 10:45:00;;;;;;;;;14.75;9.75;;;;;28.99;27.57;100894.38;4960354;28;45340;-76
2022/04/20 10:47:32;;;;;;;;;13.75;13.75;;;;;28.49;28.24;100893.88;4958927;28;45455;-76
2022/04/20 10:50:11;;;;;;;;;13.75;12.25;;;;;28.32;28.20;100893.09;4962421;28;46747;-73
2022/04/20 10:52:38;;;;;;;;;12.75;11.25;;;;;28.18;28.28;100887.59;4970254;28;45606;-75
2022/04/20 10:55:04;;;;;;;;;14.50;12.75;;;;;28.00;28.47;100882.47;4970543;28;45425;-76
2022/04/20 10:57:38;;;;;;;;;11.00;9.00;;;;;27.80;28.72;100879.34;4971650;28;45629;-76
2022/04/20 11:00:24;;;;;;;;;14.00;11.00;;;;;27.61;28.83;100883.25;4968836;28;46239;-77
2022/04/20 11:02:54;;;;;;;;;8.00;8.00;;;;;27.47;29.20;100881.28;4967153;28;45496;-75
2022/04/20 11:05:24;;;;;;;;;10.00;8.25;;;;;27.26;29.23;100865.63;4992159;28;45440;-75
2022/04/20 11:07:59;;;;;;;;;11.00;8.25;;;;;27.09;29.57;100870.19;4959704;28;45419;-75
2022/04/20 11:10:26;;;;;;;;;10.75;10.75;;;;;26.89;29.84;100861.59;4969413;28;45479;-74
2022/04/20 11:18:38;;;;;;;;;8.00;8.00;;;;;27.04;30.07;100853.63;4970209;28;45482;-75
2022/04/20 11:18:43;;;;;;;;;14.75;10.00;;;;;27.22;30.19;100861.59;4981892;28;45744;-80
2022/04/20 11:21:10;;;;;;;;;8.50;8.25;;;;;27.26;29.87;100852.97;4966362;28;47126;-77
2022/04/20 11:23:51;;;;;;;;;7.25;4.25;;;;;27.26;29.62;100858.38;4968351;28;45809;-77
2022/04/20 11:26:24;;;;;;;;;6.50;6.00;;;;;27.22;29.90;100853.50;4959978;28;45554;-75
2022/04/20 11:28:50;;;;;;;;;8.50;8.00;;;;;27.22;29.72;100846.22;4970878;28;47883;-78
2022/04/20 11:31:16;;;;;;;;;8.50;7.00;;;;;27.30;29.78;100850.75;4968226;28;46415;-77
2022/04/20 11:33:43;;;;;;;;;6.00;6.00;;;;;27.24;29.08;100851.44;4968952;28;45782;-77
2022/04/20 11:36:14;;;;;;;;;9.25;6.50;;;;;27.22;29.81;100851.63;4967240;28;45487;-75
2022/04/20 11:38:44;;;;;;;;;4.00;4.00;;;;;27.31;29.07;100850.59;4963194;28;45440;-75